sensor_id;sensor_type;location;lat;lon;timestamp;pressure;altitude;pressure_sealevel;temperature;humidity
78582;BME280;67878;46.242;5.974;2024-03-17T00:02:17;95975.53;;;20.76;46.71
78582;BME280;67878;46.242;5.974;2024-03-17T00:04:43;95974.72;;;20.75;46.65
78582;BME280;67878;46.242;5.974;2024-03-17T00:07:09;95967.81;;;20.74;46.43
78582;BME280;67878;46.242;5.974;2024-03-17T00:09:34;95968.78;;;20.73;46.38
78582;BME280;67878;46.242;5.974;2024-03-17T00:12:00;95961.91;;;20.72;46.54
78582;BME280;67878;46.242;5.974;2024-03-17T00:14:25;95971.56;;;20.72;46.37
78582;BME280;67878;46.242;5.974;2024-03-17T00:16:53;95978.59;;;20.71;46.44
78582;BME280;67878;46.242;5.974;2024-03-17T00:19:19;95972.53;;;20.71;46.33
78582;BME280;67878;46.242;5.974;2024-03-17T00:21:44;95964.81;;;20.69;46.30
78582;BME280;67878;46.242;5.974;2024-03-17T00:24:10;95972.69;;;20.69;46.23
78582;BME280;67878;46.242;5.974;2024-03-17T00:26:35;95969.25;;;20.69;46.12
78582;BME280;67878;46.242;5.974;2024-03-17T00:29:01;95964.16;;;20.67;46.25
78582;BME280;67878;46.242;5.974;2024-03-17T00:31:28;95966.78;;;20.67;45.85
78582;BME280;67878;46.242;5.974;2024-03-17T00:33:53;95966.91;;;20.66;45.98
78582;BME280;67878;46.242;5.974;2024-03-17T00:36:19;95971.34;;;20.65;45.97
78582;BME280;67878;46.242;5.974;2024-03-17T00:38:44;95966.91;;;20.66;45.82
78582;BME280;67878;46.242;5.974;2024-03-17T00:41:10;95968.41;;;20.68;45.64
78582;BME280;67878;46.242;5.974;2024-03-17T00:43:35;95960.22;;;20.71;45.38
78582;BME280;67878;46.242;5.974;2024-03-17T00:46:02;95964.34;;;20.74;45.33
78582;BME280;67878;46.242;5.974;2024-03-17T00:48:27;95949.44;;;20.74;45.54
78582;BME280;67878;46.242;5.974;2024-03-17T00:50:57;95945.31;;;20.72;45.45
78582;BME280;67878;46.242;5.974;2024-03-17T00:53:24;95943.66;;;20.71;45.61
78582;BME280;67878;46.242;5.974;2024-03-17T00:55:54;95944.66;;;20.70;45.60
78582;BME280;67878;46.242;5.974;2024-03-17T00:58:22;95941.19;;;20.69;46.23
78582;BME280;67878;46.242;5.974;2024-03-17T01:00:48;95941.34;;;20.68;45.99
78582;BME280;67878;46.242;5.974;2024-03-17T01:03:15;95950.06;;;20.68;46.08
78582;BME280;67878;46.242;5.974;2024-03-17T01:05:41;95943.16;;;20.67;45.99
78582;BME280;67878;46.242;5.974;2024-03-17T01:08:09;95937.91;;;20.67;46.17
78582;BME280;67878;46.242;5.974;2024-03-17T01:10:38;95935.28;;;20.67;46.24
78582;BME280;67878;46.242;5.974;2024-03-17T01:13:06;95943.16;;;20.67;46.39
78582;BME280;67878;46.242;5.974;2024-03-17T01:15:32;95942.34;;;20.67;46.24
78582;BME280;67878;46.242;5.974;2024-03-17T01:17:58;95944.97;;;20.67;46.22
78582;BME280;67878;46.242;5.974;2024-03-17T01:20:23;95943.47;;;20.64;46.32
78582;BME280;67878;46.242;5.974;2024-03-17T01:22:49;95947.72;;;20.65;46.36
78582;BME280;67878;46.242;5.974;2024-03-17T01:25:14;95947.88;;;20.64;46.45
78582;BME280;67878;46.242;5.974;2024-03-17T01:27:41;95957.56;;;20.63;46.39
78582;BME280;67878;46.242;5.974;2024-03-17T01:30:07;95954.13;;;20.63;46.46
78582;BME280;67878;46.242;5.974;2024-03-17T01:32:33;95950.66;;;20.62;46.56
78582;BME280;67878;46.242;5.974;2024-03-17T01:34:58;95956.72;;;20.63;46.66
78582;BME280;67878;46.242;5.974;2024-03-17T01:37:24;95953.44;;;20.60;46.47
78582;BME280;67878;46.242;5.974;2024-03-17T01:39:50;95950.81;;;20.60;46.61
78582;BME280;67878;46.242;5.974;2024-03-17T01:42:15;95949.19;;;20.59;46.58
78582;BME280;67878;46.242;5.974;2024-03-17T01:44:41;95944.75;;;20.60;46.82
78582;BME280;67878;46.242;5.974;2024-03-17T01:47:06;95942.13;;;20.60;46.85
78582;BME280;67878;46.242;5.974;2024-03-17T01:49:34;95934.41;;;20.58;46.76
78582;BME280;67878;46.242;5.974;2024-03-17T01:52:00;95925.69;;;20.58;46.69
78582;BME280;67878;46.242;5.974;2024-03-17T01:54:26;95916.03;;;20.58;46.61
78582;BME280;67878;46.242;5.974;2024-03-17T01:56:51;95910.94;;;20.57;47.09
78582;BME280;67878;46.242;5.974;2024-03-17T01:59:18;95909.94;;;20.58;46.94
78582;BME280;67878;46.242;5.974;2024-03-17T02:01:44;95902.25;;;20.56;47.10
78582;BME280;67878;46.242;5.974;2024-03-17T02:04:09;95897.81;;;20.57;47.22
78582;BME280;67878;46.242;5.974;2024-03-17T02:06:35;95901.44;;;20.56;47.14
78582;BME280;67878;46.242;5.974;2024-03-17T02:09:00;95900.75;;;20.54;46.96
78582;BME280;67878;46.242;5.974;2024-03-17T02:11:28;95900.75;;;20.54;47.04
78582;BME280;67878;46.242;5.974;2024-03-17T02:13:55;95899.94;;;20.53;47.09
78582;BME280;67878;46.242;5.974;2024-03-17T02:16:21;95898.13;;;20.54;47.25
78582;BME280;67878;46.242;5.974;2024-03-17T02:18:47;95899.22;;;20.51;47.03
78582;BME280;67878;46.242;5.974;2024-03-17T02:21:13;95902.56;;;20.53;47.36
78582;BME280;67878;46.242;5.974;2024-03-17T02:23:41;95886.94;;;20.52;47.24
78582;BME280;67878;46.242;5.974;2024-03-17T02:26:06;95891.34;;;20.51;47.51
78582;BME280;67878;46.242;5.974;2024-03-17T02:28:41;95891.34;;;20.51;47.96
78582;BME280;67878;46.242;5.974;2024-03-17T02:31:08;95881.84;;;20.50;47.66
78582;BME280;67878;46.242;5.974;2024-03-17T02:33:35;95879.38;;;20.49;47.61
78582;BME280;67878;46.242;5.974;2024-03-17T02:36:02;95880.19;;;20.49;47.68
78582;BME280;67878;46.242;5.974;2024-03-17T02:38:29;95883.78;;;20.48;47.58
78582;BME280;67878;46.242;5.974;2024-03-17T02:41:13;95878.69;;;20.47;47.79
78582;BME280;67878;46.242;5.974;2024-03-17T02:43:39;95879.53;;;20.47;47.64
78582;BME280;67878;46.242;5.974;2024-03-17T02:46:04;95880.34;;;20.48;47.76
78582;BME280;67878;46.242;5.974;2024-03-17T02:48:30;95875.25;;;20.46;47.75
78582;BME280;67878;46.242;5.974;2024-03-17T02:50:56;95867.56;;;20.45;47.91
78582;BME280;67878;46.242;5.974;2024-03-17T02:53:22;95873.63;;;20.45;47.74
78582;BME280;67878;46.242;5.974;2024-03-17T02:55:47;95873.63;;;20.45;47.79
78582;BME280;67878;46.242;5.974;2024-03-17T02:58:13;95873.44;;;20.47;47.56
78582;BME280;67878;46.242;5.974;2024-03-17T03:00:38;95869.03;;;20.47;47.26
78582;BME280;67878;46.242;5.974;2024-03-17T03:03:05;95868.06;;;20.48;47.09
78582;BME280;67878;46.242;5.974;2024-03-17T03:05:30;95873.00;;;20.51;46.92
78582;BME280;67878;46.242;5.974;2024-03-17T03:07:56;95873.69;;;20.53;46.96
78582;BME280;67878;46.242;5.974;2024-03-17T03:10:21;95863.03;;;20.55;47.34
78582;BME280;67878;46.242;5.974;2024-03-17T03:12:47;95872.72;;;20.54;47.68
78582;BME280;67878;46.242;5.974;2024-03-17T03:15:12;95868.56;;;20.52;47.41
78582;BME280;67878;46.242;5.974;2024-03-17T03:17:38;95874.94;;;20.49;47.52
78582;BME280;67878;46.242;5.974;2024-03-17T03:20:04;95872.47;;;20.48;47.48
78582;BME280;67878;46.242;5.974;2024-03-17T03:22:31;95870.81;;;20.47;47.42
78582;BME280;67878;46.242;5.974;2024-03-17T03:24:57;95866.56;;;20.46;47.13
78582;BME280;67878;46.242;5.974;2024-03-17T03:27:23;95867.56;;;20.45;47.12
78582;BME280;67878;46.242;5.974;2024-03-17T03:29:50;95865.88;;;20.44;47.10
78582;BME280;67878;46.242;5.974;2024-03-17T03:32:15;95865.88;;;20.44;46.62
78582;BME280;67878;46.242;5.974;2024-03-17T03:34:41;95862.31;;;20.45;46.47
78582;BME280;67878;46.242;5.974;2024-03-17T03:37:06;95858.69;;;20.46;46.67
78582;BME280;67878;46.242;5.974;2024-03-17T03:39:33;95864.09;;;20.44;46.81
78582;BME280;67878;46.242;5.974;2024-03-17T03:42:01;95853.44;;;20.46;46.78
78582;BME280;67878;46.242;5.974;2024-03-17T03:44:27;95864.94;;;20.45;47.03
78582;BME280;67878;46.242;5.974;2024-03-17T03:46:53;95864.09;;;20.44;46.98
78582;BME280;67878;46.242;5.974;2024-03-17T03:49:23;95874.59;;;20.44;47.01
78582;BME280;67878;46.242;5.974;2024-03-17T03:51:49;95874.59;;;20.44;46.96
78582;BME280;67878;46.242;5.974;2024-03-17T03:54:14;95880.00;;;20.43;46.78
78582;BME280;67878;46.242;5.974;2024-03-17T03:56:40;95875.56;;;20.43;47.08
78582;BME280;67878;46.242;5.974;2024-03-17T03:59:05;95875.72;;;20.42;47.26
78582;BME280;67878;46.242;5.974;2024-03-17T04:01:31;95880.13;;;20.41;47.13
78582;BME280;67878;46.242;5.974;2024-03-17T04:03:56;95874.88;;;20.41;47.46
78582;BME280;67878;46.242;5.974;2024-03-17T04:06:22;95872.44;;;20.40;47.46
78582;BME280;67878;46.242;5.974;2024-03-17T04:08:48;95876.03;;;20.38;47.42
78582;BME280;67878;46.242;5.974;2024-03-17T04:11:13;95876.88;;;20.39;47.23
78582;BME280;67878;46.242;5.974;2024-03-17T04:13:39;95876.03;;;20.38;47.48
78582;BME280;67878;46.242;5.974;2024-03-17T04:16:05;95877.81;;;20.38;47.22
78582;BME280;67878;46.242;5.974;2024-03-17T04:18:32;95883.06;;;20.38;46.93
78582;BME280;67878;46.242;5.974;2024-03-17T04:21:02;95880.44;;;20.38;47.56
78582;BME280;67878;46.242;5.974;2024-03-17T04:23:29;95878.00;;;20.36;47.54
78582;BME280;67878;46.242;5.974;2024-03-17T04:25:56;95875.38;;;20.36;47.35
78582;BME280;67878;46.242;5.974;2024-03-17T04:28:21;95876.31;;;20.35;47.40
78582;BME280;67878;46.242;5.974;2024-03-17T04:30:47;95874.69;;;20.34;47.52
78582;BME280;67878;46.242;5.974;2024-03-17T04:33:13;95867.81;;;20.33;47.70
78582;BME280;67878;46.242;5.974;2024-03-17T04:35:39;95868.63;;;20.34;47.35
78582;BME280;67878;46.242;5.974;2024-03-17T04:38:05;95872.06;;;20.34;47.33
78582;BME280;67878;46.242;5.974;2024-03-17T04:40:35;95869.63;;;20.33;47.51
78582;BME280;67878;46.242;5.974;2024-03-17T04:43:05;95875.00;;;20.31;47.77
78582;BME280;67878;46.242;5.974;2024-03-17T04:45:31;95870.75;;;20.30;47.62
78582;BME280;67878;46.242;5.974;2024-03-17T04:47:56;95874.19;;;20.31;47.52
78582;BME280;67878;46.242;5.974;2024-03-17T04:50:22;95870.06;;;20.28;47.71
78582;BME280;67878;46.242;5.974;2024-03-17T04:52:47;95874.19;;;20.31;47.83
78582;BME280;67878;46.242;5.974;2024-03-17T04:55:14;95875.13;;;20.30;47.51
78582;BME280;67878;46.242;5.974;2024-03-17T04:57:39;95869.06;;;20.29;47.36
78582;BME280;67878;46.242;5.974;2024-03-17T05:00:05;95873.50;;;20.29;47.73
78582;BME280;67878;46.242;5.974;2024-03-17T05:02:32;95877.94;;;20.28;47.71
78582;BME280;67878;46.242;5.974;2024-03-17T05:04:58;95868.25;;;20.29;47.92
78582;BME280;67878;46.242;5.974;2024-03-17T05:07:24;95876.94;;;20.29;47.78
78582;BME280;67878;46.242;5.974;2024-03-17T05:09:49;95873.50;;;20.29;47.45
78582;BME280;67878;46.242;5.974;2024-03-17T05:12:15;95871.88;;;20.28;47.58
78582;BME280;67878;46.242;5.974;2024-03-17T05:14:41;95867.44;;;20.28;47.54
78582;BME280;67878;46.242;5.974;2024-03-17T05:17:06;95871.19;;;20.26;47.84
78582;BME280;67878;46.242;5.974;2024-03-17T05:19:32;95872.00;;;20.26;47.74
78582;BME280;67878;46.242;5.974;2024-03-17T05:21:57;95856.44;;;20.25;47.74
78582;BME280;67878;46.242;5.974;2024-03-17T05:24:23;95860.84;;;20.24;47.73
78582;BME280;67878;46.242;5.974;2024-03-17T05:26:48;95868.72;;;20.24;48.04
78582;BME280;67878;46.242;5.974;2024-03-17T05:29:14;95875.75;;;20.24;48.03
78582;BME280;67878;46.242;5.974;2024-03-17T05:31:39;95876.56;;;20.24;47.98
78582;BME280;67878;46.242;5.974;2024-03-17T05:34:08;95878.53;;;20.22;48.22
78582;BME280;67878;46.242;5.974;2024-03-17T05:36:35;95872.50;;;20.22;48.06
78582;BME280;67878;46.242;5.974;2024-03-17T05:39:01;95876.06;;;20.21;48.07
78582;BME280;67878;46.242;5.974;2024-03-17T05:41:26;95872.63;;;20.20;47.69
78582;BME280;67878;46.242;5.974;2024-03-17T05:43:53;95878.69;;;20.21;48.03
78582;BME280;67878;46.242;5.974;2024-03-17T05:46:22;95882.28;;;20.20;47.83
78582;BME280;67878;46.242;5.974;2024-03-17T05:48:47;95882.28;;;20.20;48.04
78582;BME280;67878;46.242;5.974;2024-03-17T05:51:13;95882.44;;;20.18;47.98
78582;BME280;67878;46.242;5.974;2024-03-17T05:53:41;95886.88;;;20.18;48.91
78582;BME280;67878;46.242;5.974;2024-03-17T05:56:09;95884.41;;;20.16;48.31
78582;BME280;67878;46.242;5.974;2024-03-17T05:58:41;95890.47;;;20.17;48.32
78582;BME280;67878;46.242;5.974;2024-03-17T06:01:13;95888.00;;;20.15;48.24
78582;BME280;67878;46.242;5.974;2024-03-17T06:03:39;95880.13;;;20.15;48.26
78582;BME280;67878;46.242;5.974;2024-03-17T06:06:07;95875.88;;;20.14;48.13
78582;BME280;67878;46.242;5.974;2024-03-17T06:08:35;95883.56;;;20.15;48.35
78582;BME280;67878;46.242;5.974;2024-03-17T06:11:01;95879.31;;;20.14;48.29
78582;BME280;67878;46.242;5.974;2024-03-17T06:13:27;95891.59;;;20.14;48.61
78582;BME280;67878;46.242;5.974;2024-03-17T06:15:54;95893.41;;;20.13;48.54
78582;BME280;67878;46.242;5.974;2024-03-17T06:18:19;95897.81;;;20.13;48.50
78582;BME280;67878;46.242;5.974;2024-03-17T06:20:46;95905.66;;;20.13;48.46
78582;BME280;67878;46.242;5.974;2024-03-17T06:23:12;95904.84;;;20.12;48.60
78582;BME280;67878;46.242;5.974;2024-03-17T06:25:56;95904.19;;;20.10;48.94
78582;BME280;67878;46.242;5.974;2024-03-17T06:28:21;95901.56;;;20.10;48.59
78582;BME280;67878;46.242;5.974;2024-03-17T06:30:57;95898.94;;;20.10;49.17
78582;BME280;67878;46.242;5.974;2024-03-17T06:33:29;95901.72;;;20.09;48.86
78582;BME280;67878;46.242;5.974;2024-03-17T06:35:54;95888.59;;;20.09;48.86
78582;BME280;67878;46.242;5.974;2024-03-17T06:38:21;95901.72;;;20.09;48.68
78582;BME280;67878;46.242;5.974;2024-03-17T06:40:52;95906.97;;;20.09;48.27
78582;BME280;67878;46.242;5.974;2024-03-17T06:43:19;95914.97;;;20.07;48.83
78582;BME280;67878;46.242;5.974;2024-03-17T06:45:57;95915.81;;;20.08;49.00
78582;BME280;67878;46.242;5.974;2024-03-17T06:48:24;95918.44;;;20.08;48.81
78582;BME280;67878;46.242;5.974;2024-03-17T06:50:50;95935.66;;;20.10;48.05
78582;BME280;67878;46.242;5.974;2024-03-17T06:53:18;95933.84;;;20.11;47.73
78582;BME280;67878;46.242;5.974;2024-03-17T06:55:44;95927.63;;;20.12;47.63
78582;BME280;67878;46.242;5.974;2024-03-17T06:58:11;95921.69;;;20.10;47.22
78582;BME280;67878;46.242;5.974;2024-03-17T07:00:37;95917.31;;;20.10;46.79
78582;BME280;67878;46.242;5.974;2024-03-17T07:03:02;95917.31;;;20.10;47.06
78582;BME280;67878;46.242;5.974;2024-03-17T07:05:28;95914.69;;;20.10;46.46
78582;BME280;67878;46.242;5.974;2024-03-17T07:07:55;95923.38;;;20.11;46.52
78582;BME280;67878;46.242;5.974;2024-03-17T07:10:20;95922.56;;;20.10;46.22
78582;BME280;67878;46.242;5.974;2024-03-17T07:12:46;95933.19;;;20.09;46.26
78582;BME280;67878;46.242;5.974;2024-03-17T07:15:12;95928.91;;;20.08;46.11
78582;BME280;67878;46.242;5.974;2024-03-17T07:17:38;95933.31;;;20.07;46.14
78582;BME280;67878;46.242;5.974;2024-03-17T07:20:03;95927.94;;;20.09;46.36
78582;BME280;67878;46.242;5.974;2024-03-17T07:22:33;95933.84;;;20.11;45.86
78582;BME280;67878;46.242;5.974;2024-03-17T07:24:58;95937.97;;;19.78;45.10
78582;BME280;67878;46.242;5.974;2024-03-17T07:27:27;95938.72;;;19.70;45.81
78582;BME280;67878;46.242;5.974;2024-03-17T07:29:55;95939.09;;;19.75;45.94
78582;BME280;67878;46.242;5.974;2024-03-17T07:32:22;95940.28;;;19.81;45.83
78582;BME280;67878;46.242;5.974;2024-03-17T07:34:50;95937.25;;;19.85;45.68
78582;BME280;67878;46.242;5.974;2024-03-17T07:37:16;95935.13;;;19.89;45.73
78582;BME280;67878;46.242;5.974;2024-03-17T07:39:44;95937.44;;;19.92;45.19
78582;BME280;67878;46.242;5.974;2024-03-17T07:42:11;95931.22;;;19.93;45.46
78582;BME280;67878;46.242;5.974;2024-03-17T07:44:38;95933.53;;;19.96;45.25
78582;BME280;67878;46.242;5.974;2024-03-17T07:47:04;95931.78;;;19.97;45.05
78582;BME280;67878;46.242;5.974;2024-03-17T07:49:32;95927.19;;;19.99;44.55
78582;BME280;67878;46.242;5.974;2024-03-17T07:51:58;95929.81;;;19.99;44.99
78582;BME280;67878;46.242;5.974;2024-03-17T07:54:26;95934.09;;;20.00;44.61
78582;BME280;67878;46.242;5.974;2024-03-17T07:56:52;95936.41;;;20.03;44.84
78582;BME280;67878;46.242;5.974;2024-03-17T07:59:18;95936.41;;;20.03;44.47
78582;BME280;67878;46.242;5.974;2024-03-17T08:01:46;95926.75;;;20.03;44.30
78582;BME280;67878;46.242;5.974;2024-03-17T08:04:12;95930.19;;;20.04;44.72
78582;BME280;67878;46.242;5.974;2024-03-17T08:06:41;95931.16;;;20.03;44.48
78582;BME280;67878;46.242;5.974;2024-03-17T08:09:10;95938.03;;;20.04;44.26
78582;BME280;67878;46.242;5.974;2024-03-17T08:11:37;95936.25;;;20.04;44.58
78582;BME280;67878;46.242;5.974;2024-03-17T08:14:03;95931.84;;;20.05;44.24
78582;BME280;67878;46.242;5.974;2024-03-17T08:16:31;95937.09;;;20.05;44.38
78582;BME280;67878;46.242;5.974;2024-03-17T08:18:57;95934.47;;;20.05;44.36
78582;BME280;67878;46.242;5.974;2024-03-17T08:21:23;95933.47;;;20.06;44.06
78582;BME280;67878;46.242;5.974;2024-03-17T08:23:49;95941.19;;;20.07;44.23
78582;BME280;67878;46.242;5.974;2024-03-17T08:26:16;95941.34;;;20.06;44.25
78582;BME280;67878;46.242;5.974;2024-03-17T08:28:42;95942.16;;;20.06;44.10
78582;BME280;67878;46.242;5.974;2024-03-17T08:31:08;95943.16;;;20.05;44.45
78582;BME280;67878;46.242;5.974;2024-03-17T08:33:36;95935.41;;;20.04;44.40
78582;BME280;67878;46.242;5.974;2024-03-17T08:36:07;95942.16;;;20.06;44.33
78582;BME280;67878;46.242;5.974;2024-03-17T08:38:33;95940.53;;;20.05;44.24
78582;BME280;67878;46.242;5.974;2024-03-17T08:41:03;95940.53;;;20.05;44.07
78582;BME280;67878;46.242;5.974;2024-03-17T08:43:30;95932.66;;;20.05;44.52
78582;BME280;67878;46.242;5.974;2024-03-17T08:46:00;95931.84;;;20.05;44.09
78582;BME280;67878;46.242;5.974;2024-03-17T08:48:34;95940.53;;;20.05;44.41
78582;BME280;67878;46.242;5.974;2024-03-17T08:51:00;95943.00;;;20.07;44.06
78582;BME280;67878;46.242;5.974;2024-03-17T08:53:29;95943.00;;;20.07;44.24
78582;BME280;67878;46.242;5.974;2024-03-17T08:55:56;95938.56;;;20.07;44.10
78582;BME280;67878;46.242;5.974;2024-03-17T08:58:22;95919.25;;;20.08;44.21
78582;BME280;67878;46.242;5.974;2024-03-17T09:00:48;95916.63;;;20.08;44.41
78582;BME280;67878;46.242;5.974;2024-03-17T09:03:13;95918.25;;;20.09;44.15
78582;BME280;67878;46.242;5.974;2024-03-17T09:05:44;95912.88;;;20.11;43.89
78582;BME280;67878;46.242;5.974;2024-03-17T09:08:18;95905.66;;;20.13;44.04
78582;BME280;67878;46.242;5.974;2024-03-17T09:10:46;95909.94;;;20.14;44.29
78582;BME280;67878;46.242;5.974;2024-03-17T09:13:16;95907.16;;;20.15;44.06
78582;BME280;67878;46.242;5.974;2024-03-17T09:18:22;95911.97;;;20.20;43.84
78582;BME280;67878;46.242;5.974;2024-03-17T09:21:03;95907.53;;;20.21;43.51
78582;BME280;67878;46.242;5.974;2024-03-17T09:23:30;95907.41;;;20.22;44.31
78582;BME280;67878;46.242;5.974;2024-03-17T09:26:03;95913.47;;;20.23;44.00
78582;BME280;67878;46.242;5.974;2024-03-17T09:28:30;95913.28;;;20.24;44.03
78582;BME280;67878;46.242;5.974;2024-03-17T09:30:57;95912.47;;;20.24;44.38
78582;BME280;67878;46.242;5.974;2024-03-17T09:33:24;95908.91;;;20.25;43.95
78582;BME280;67878;46.242;5.974;2024-03-17T09:35:54;95909.72;;;20.25;43.68
78582;BME280;67878;46.242;5.974;2024-03-17T09:38:20;95911.34;;;20.26;44.00
78582;BME280;67878;46.242;5.974;2024-03-17T09:40:50;95902.66;;;20.26;43.26
78582;BME280;67878;46.242;5.974;2024-03-17T09:43:19;95900.84;;;20.26;43.77
78582;BME280;67878;46.242;5.974;2024-03-17T09:45:46;95898.22;;;20.26;43.84
78582;BME280;67878;46.242;5.974;2024-03-17T09:48:15;95905.16;;;20.27;43.53
78582;BME280;67878;46.242;5.974;2024-03-17T09:50:52;95904.16;;;20.28;43.95
78582;BME280;67878;46.242;5.974;2024-03-17T09:53:26;95895.31;;;20.29;43.56
78582;BME280;67878;46.242;5.974;2024-03-17T09:55:57;95891.88;;;20.29;43.58
78582;BME280;67878;46.242;5.974;2024-03-17T09:58:24;95887.44;;;20.29;43.68
78582;BME280;67878;46.242;5.974;2024-03-17T10:00:49;95896.13;;;20.30;43.72
78582;BME280;67878;46.242;5.974;2024-03-17T10:03:49;95892.69;;;20.29;43.27
78582;BME280;67878;46.242;5.974;2024-03-17T10:06:23;95889.09;;;20.30;43.73
78582;BME280;67878;46.242;5.974;2024-03-17T10:08:50;95889.09;;;20.30;43.60
78582;BME280;67878;46.242;5.974;2024-03-17T10:11:18;95882.88;;;20.31;43.72
78582;BME280;67878;46.242;5.974;2024-03-17T10:13:44;95872.38;;;20.31;43.17
78582;BME280;67878;46.242;5.974;2024-03-17T10:16:24;95864.50;;;20.31;43.58
78582;BME280;67878;46.242;5.974;2024-03-17T10:18:51;95866.00;;;20.34;43.96
78582;BME280;67878;46.242;5.974;2024-03-17T10:21:35;95862.38;;;20.35;45.06
78582;BME280;67878;46.242;5.974;2024-03-17T10:24:19;95860.31;;;20.38;43.97
78582;BME280;67878;46.242;5.974;2024-03-17T10:26:47;95858.31;;;20.41;44.37
78582;BME280;67878;46.242;5.974;2024-03-17T10:29:32;95862.44;;;20.43;43.54
78582;BME280;67878;46.242;5.974;2024-03-17T10:32:02;95853.44;;;20.46;44.42
78582;BME280;67878;46.242;5.974;2024-03-17T10:34:29;95851.63;;;20.46;44.23
78582;BME280;67878;46.242;5.974;2024-03-17T10:37:16;95854.13;;;20.48;44.71
78582;BME280;67878;46.242;5.974;2024-03-17T10:39:52;95855.75;;;20.49;44.38
78582;BME280;67878;46.242;5.974;2024-03-17T10:42:26;95854.78;;;20.50;44.21
78582;BME280;67878;46.242;5.974;2024-03-17T10:44:57;95854.78;;;20.50;44.47
78582;BME280;67878;46.242;5.974;2024-03-17T10:47:25;95847.56;;;20.52;44.02
78582;BME280;67878;46.242;5.974;2024-03-17T10:49:51;95842.31;;;20.52;44.10
78582;BME280;67878;46.242;5.974;2024-03-17T10:52:18;95850.91;;;20.54;44.14
78582;BME280;67878;46.242;5.974;2024-03-17T10:54:49;95853.88;;;20.59;44.34
78582;BME280;67878;46.242;5.974;2024-03-17T11:00:03;95840.81;;;20.67;44.65
78582;BME280;67878;46.242;5.974;2024-03-17T11:02:31;95834.09;;;20.73;44.35
78582;BME280;67878;46.242;5.974;2024-03-17T11:05:25;95834.78;;;20.83;44.64
78582;BME280;67878;46.242;5.974;2024-03-17T11:07:55;95828.63;;;20.92;44.39
78582;BME280;67878;46.242;5.974;2024-03-17T11:10:27;95826.47;;;20.96;44.46
78582;BME280;67878;46.242;5.974;2024-03-17T11:12:55;95827.16;;;20.98;44.06
78582;BME280;67878;46.242;5.974;2024-03-17T11:18:26;95822.72;;;20.98;44.59
78582;BME280;67878;46.242;5.974;2024-03-17T11:21:04;95817.63;;;20.97;44.52
78582;BME280;67878;46.242;5.974;2024-03-17T11:23:36;95812.53;;;20.95;44.33
78582;BME280;67878;46.242;5.974;2024-03-17T11:26:06;95820.56;;;20.94;44.16
78582;BME280;67878;46.242;5.974;2024-03-17T11:33:58;95799.22;;;20.97;44.34
78582;BME280;67878;46.242;5.974;2024-03-17T11:39:01;95804.34;;;20.98;44.08
78582;BME280;67878;46.242;5.974;2024-03-17T11:41:46;95793.84;;;20.98;43.67
78582;BME280;67878;46.242;5.974;2024-03-17T11:44:24;95800.72;;;20.99;44.42
78582;BME280;67878;46.242;5.974;2024-03-17T11:49:19;95797.09;;;21.00;44.43
78582;BME280;67878;46.242;5.974;2024-03-17T11:51:46;95788.59;;;20.98;44.46
78582;BME280;67878;46.242;5.974;2024-03-17T11:54:27;95793.66;;;21.00;44.56
78582;BME280;67878;46.242;5.974;2024-03-17T11:56:55;95787.78;;;20.98;44.36
78582;BME280;67878;46.242;5.974;2024-03-17T11:59:24;95784.16;;;20.99;44.34
78582;BME280;67878;46.242;5.974;2024-03-17T12:01:50;95772.81;;;20.98;44.54
78582;BME280;67878;46.242;5.974;2024-03-17T12:04:19;95774.63;;;20.98;44.28
78582;BME280;67878;46.242;5.974;2024-03-17T12:06:54;95767.56;;;20.98;44.04
78582;BME280;67878;46.242;5.974;2024-03-17T12:09:27;95765.78;;;20.99;45.05
78582;BME280;67878;46.242;5.974;2024-03-17T12:12:06;95760.50;;;20.99;44.42
78582;BME280;67878;46.242;5.974;2024-03-17T12:14:38;95773.66;;;20.99;44.70
78582;BME280;67878;46.242;5.974;2024-03-17T12:17:06;95780.53;;;21.00;44.55
78582;BME280;67878;46.242;5.974;2024-03-17T12:19:32;95769.22;;;20.99;44.52
78582;BME280;67878;46.242;5.974;2024-03-17T12:21:59;95782.34;;;20.99;44.69
78582;BME280;67878;46.242;5.974;2024-03-17T12:24:27;95784.16;;;20.99;44.74
78582;BME280;67878;46.242;5.974;2024-03-17T12:26:54;95777.09;;;20.99;44.55
78582;BME280;67878;46.242;5.974;2024-03-17T12:31:46;95759.69;;;20.98;44.55
78582;BME280;67878;46.242;5.974;2024-03-17T12:34:12;95759.69;;;20.98;44.75
78582;BME280;67878;46.242;5.974;2024-03-17T12:36:38;95769.22;;;20.99;44.69
78582;BME280;67878;46.242;5.974;2024-03-17T12:39:10;95762.16;;;21.00;44.18
78582;BME280;67878;46.242;5.974;2024-03-17T12:41:39;95769.22;;;20.99;44.97
78582;BME280;67878;46.242;5.974;2024-03-17T12:44:04;95767.41;;;21.00;44.73
78582;BME280;67878;46.242;5.974;2024-03-17T12:46:30;95768.06;;;21.02;44.88
78582;BME280;67878;46.242;5.974;2024-03-17T12:48:59;95759.38;;;21.01;44.47
78582;BME280;67878;46.242;5.974;2024-03-17T12:51:26;95748.69;;;21.03;44.51
78582;BME280;67878;46.242;5.974;2024-03-17T12:54:11;95749.53;;;21.03;44.22
78582;BME280;67878;46.242;5.974;2024-03-17T12:56:37;95752.97;;;21.04;44.69
78582;BME280;67878;46.242;5.974;2024-03-17T12:59:21;95747.56;;;21.05;44.51
78582;BME280;67878;46.242;5.974;2024-03-17T13:02:10;95738.88;;;21.05;44.15
78582;BME280;67878;46.242;5.974;2024-03-17T13:04:37;95736.22;;;21.05;44.29
78582;BME280;67878;46.242;5.974;2024-03-17T13:07:11;95730.00;;;21.06;44.82
78582;BME280;67878;46.242;5.974;2024-03-17T13:09:37;95723.91;;;21.05;44.52
78582;BME280;67878;46.242;5.974;2024-03-17T13:12:14;95722.09;;;21.06;43.77
78582;BME280;67878;46.242;5.974;2024-03-17T13:14:40;95722.97;;;21.07;44.25
78582;BME280;67878;46.242;5.974;2024-03-17T13:17:07;95722.09;;;21.06;44.58
78582;BME280;67878;46.242;5.974;2024-03-17T13:19:41;95711.59;;;21.06;44.31
78582;BME280;67878;46.242;5.974;2024-03-17T13:22:08;95714.91;;;21.08;44.30
78582;BME280;67878;46.242;5.974;2024-03-17T13:24:34;95719.34;;;21.08;44.82
78582;BME280;67878;46.242;5.974;2024-03-17T13:27:00;95713.94;;;21.09;44.44